createdAt,value
2023-05-19T00:00:56.770Z,5.63
2023-05-19T00:04:02.728Z,6.23
2023-05-19T00:07:08.388Z,4.15
2023-05-19T00:10:11.496Z,4.70
2023-05-19T00:13:13.999Z,5.22
2023-05-19T00:16:16.839Z,5.63
2023-05-19T00:19:19.270Z,4.73
2023-05-19T00:22:21.639Z,5.07
2023-05-19T00:25:24.010Z,4.80
2023-05-19T00:28:26.300Z,4.55
2023-05-19T00:31:28.739Z,5.43
2023-05-19T00:34:31.056Z,5.13
2023-05-19T00:37:33.319Z,4.82
2023-05-19T00:40:39.035Z,4.93
2023-05-19T00:43:41.340Z,6.30
2023-05-19T00:46:43.814Z,6.05
2023-05-19T00:49:46.126Z,5.63
2023-05-19T00:52:48.451Z,5.95
2023-05-19T00:55:50.841Z,4.80
2023-05-19T00:58:53.941Z,8.43
2023-05-19T01:01:56.250Z,5.90
2023-05-19T01:04:59.199Z,6.17
2023-05-19T01:08:01.945Z,6.32
2023-05-19T01:11:05.342Z,6.63
2023-05-19T01:14:07.741Z,6.85
2023-05-19T01:17:16.357Z,6.32
2023-05-19T01:20:39.313Z,7.27
2023-05-19T01:24:14.602Z,4.30
2023-05-19T01:27:42.843Z,5.78
2023-05-19T01:30:47.778Z,5.55
2023-05-19T01:33:58.119Z,7.18
2023-05-19T01:37:08.654Z,6.13
2023-05-19T01:40:11.478Z,5.93
2023-05-19T01:43:17.972Z,5.60
2023-05-19T01:46:21.500Z,6.10
2023-05-19T01:49:23.797Z,6.05
2023-05-19T01:52:26.090Z,5.70
2023-05-19T01:55:28.490Z,6.60
2023-05-19T01:58:33.772Z,6.35
2023-05-19T02:01:53.028Z,4.93
2023-05-19T02:05:03.793Z,6.00
2023-05-19T02:08:18.300Z,7.87
2023-05-19T02:11:31.554Z,5.60
2023-05-19T02:14:41.735Z,6.20
2023-05-19T02:17:50.792Z,7.70
2023-05-19T02:20:53.331Z,7.00
2023-05-19T02:23:55.732Z,5.73
2023-05-19T02:26:58.014Z,6.03
2023-05-19T02:30:00.326Z,5.40
2023-05-19T02:33:02.771Z,7.32
2023-05-19T02:36:06.463Z,6.93
2023-05-19T02:39:11.040Z,5.27
2023-05-19T02:42:14.845Z,7.07
2023-05-19T02:45:17.148Z,6.50
2023-05-19T02:48:19.389Z,5.70
2023-05-19T02:51:22.367Z,5.32
2023-05-19T02:54:24.724Z,5.97
2023-05-19T02:57:27.074Z,7.25
2023-05-19T03:00:29.336Z,5.82
2023-05-19T03:03:31.985Z,5.47
2023-05-19T03:06:34.430Z,5.97
2023-05-19T03:09:37.950Z,5.53
2023-05-19T03:12:40.650Z,5.82
2023-05-19T03:15:43.221Z,5.50
2023-05-19T03:18:46.342Z,6.00
2023-05-19T03:21:49.724Z,5.55
2023-05-19T03:24:58.752Z,6.40
2023-05-19T03:28:01.776Z,5.72
2023-05-19T03:31:04.112Z,4.57
2023-05-19T03:34:11.814Z,5.60
2023-05-19T03:37:14.308Z,5.32
2023-05-19T03:40:18.915Z,4.83
2023-05-19T03:43:21.617Z,5.22
2023-05-19T03:46:29.608Z,4.63
2023-05-19T03:49:43.751Z,5.22
2023-05-19T03:53:15.321Z,5.60
2023-05-19T03:56:18.357Z,5.10
2023-05-19T03:59:20.656Z,5.18
2023-05-19T04:02:23.031Z,5.30
2023-05-19T04:05:25.365Z,4.28
2023-05-19T04:08:29.319Z,4.15
2023-05-19T04:11:31.894Z,6.63
2023-05-19T04:14:34.203Z,5.07
2023-05-19T04:17:36.574Z,5.80
2023-05-19T04:20:38.873Z,5.75
2023-05-19T04:23:41.714Z,5.70
2023-05-19T04:26:46.232Z,6.43
2023-05-19T04:29:50.309Z,5.13
2023-05-19T04:32:52.663Z,4.07
2023-05-19T04:35:55.671Z,3.80
2023-05-19T04:39:02.547Z,5.40
2023-05-19T04:42:06.274Z,3.97
2023-05-19T04:45:09.878Z,4.70
2023-05-19T04:48:15.462Z,4.90
2023-05-19T04:51:17.787Z,5.38
2023-05-19T04:54:20.545Z,5.47
2023-05-19T04:57:23.039Z,3.67
2023-05-19T05:00:25.621Z,5.20
2023-05-19T05:03:34.632Z,4.30
2023-05-19T05:06:38.491Z,4.15
2023-05-19T05:09:41.898Z,5.47
2023-05-19T05:12:44.622Z,4.93
2023-05-19T05:15:47.357Z,3.53
2023-05-19T05:18:50.834Z,5.03
2023-05-19T05:21:53.585Z,4.68
2023-05-19T05:24:56.217Z,4.20
2023-05-19T05:27:59.159Z,4.50
2023-05-19T05:31:01.680Z,3.83
2023-05-19T05:34:04.965Z,4.63
2023-05-19T05:37:08.259Z,3.92
2023-05-19T05:40:11.800Z,3.38
2023-05-19T05:43:14.667Z,3.83
2023-05-19T05:46:22.738Z,3.60
2023-05-19T05:49:25.582Z,2.58
2023-05-19T05:52:30.417Z,2.92
2023-05-19T05:55:34.574Z,2.97
2023-05-19T05:58:37.938Z,4.07
2023-05-19T06:01:41.521Z,3.15
2023-05-19T06:04:45.180Z,3.97
2023-05-19T06:07:48.201Z,3.50
2023-05-19T06:10:55.921Z,5.97
2023-05-19T06:13:58.469Z,3.83
2023-05-19T06:17:35.527Z,4.78
2023-05-19T06:20:37.778Z,4.60
2023-05-19T06:23:41.186Z,4.05
2023-05-19T06:26:45.402Z,3.88
2023-05-19T06:29:47.720Z,3.57
2023-05-19T06:32:50.147Z,3.60
2023-05-19T06:35:52.619Z,9.68
2023-05-19T06:38:56.348Z,4.10
2023-05-19T06:41:59.052Z,4.05
2023-05-19T06:45:36.480Z,3.67
2023-05-19T06:48:40.374Z,3.38
2023-05-19T06:51:43.781Z,3.22
2023-05-19T06:54:46.272Z,3.20
2023-05-19T06:57:48.671Z,3.95
2023-05-19T07:00:52.241Z,3.30
2023-05-19T07:03:54.640Z,4.00
2023-05-19T07:06:56.946Z,3.72
2023-05-19T07:10:00.024Z,4.18
2023-05-19T07:13:07.162Z,3.17
2023-05-19T07:16:11.391Z,3.20
2023-05-19T07:19:14.617Z,3.13
2023-05-19T07:22:17.304Z,3.53
2023-05-19T07:25:20.171Z,4.20
2023-05-19T07:28:22.976Z,3.72
2023-05-19T07:31:25.286Z,3.70
2023-05-19T07:34:27.586Z,3.47
2023-05-19T07:37:29.998Z,4.55
2023-05-19T07:40:32.581Z,3.00
2023-05-19T07:43:35.037Z,3.70
2023-05-19T07:46:38.034Z,4.00
2023-05-19T07:49:40.578Z,3.78
2023-05-19T07:52:42.960Z,3.85
2023-05-19T07:55:45.267Z,5.25
2023-05-19T07:58:47.650Z,3.60
2023-05-19T08:01:50.013Z,3.13
2023-05-19T08:04:53.232Z,3.70
2023-05-19T08:07:57.544Z,3.90
2023-05-19T08:11:04.453Z,4.35
2023-05-19T08:14:06.835Z,3.63
2023-05-19T08:17:09.233Z,3.53
2023-05-19T08:20:14.856Z,4.22
2023-05-19T08:23:17.637Z,3.60
2023-05-19T08:26:19.942Z,3.22
2023-05-19T08:29:22.488Z,3.03
2023-05-19T08:32:25.002Z,3.47
2023-05-19T08:35:27.392Z,3.90
2023-05-19T08:38:29.692Z,3.30
2023-05-19T08:41:32.479Z,3.33
2023-05-19T08:44:34.963Z,4.55
2023-05-19T08:47:37.376Z,3.90
2023-05-19T08:50:44.313Z,5.32
2023-05-19T08:53:51.774Z,4.95
2023-05-19T08:56:54.376Z,3.88
2023-05-19T08:59:57.001Z,3.20
2023-05-19T09:03:16.998Z,3.30
2023-05-19T09:06:21.437Z,3.45
2023-05-19T09:09:23.861Z,3.55
2023-05-19T09:12:26.247Z,3.38
2023-05-19T09:15:28.715Z,3.55
2023-05-19T09:18:31.908Z,3.07
2023-05-19T09:21:34.272Z,3.70
2023-05-19T09:24:37.940Z,3.13
2023-05-19T09:27:40.252Z,3.42
2023-05-19T09:30:42.524Z,3.80
2023-05-19T09:33:46.020Z,2.90
2023-05-19T09:36:53.364Z,3.63
2023-05-19T09:39:56.058Z,3.00
2023-05-19T09:42:58.355Z,3.58
2023-05-19T09:46:04.835Z,4.00
2023-05-19T09:49:10.449Z,3.40
2023-05-19T09:52:16.452Z,3.58
2023-05-19T09:55:20.182Z,3.28
2023-05-19T09:58:22.658Z,4.47
2023-05-19T10:01:26.035Z,3.38
2023-05-19T10:04:29.723Z,3.00
2023-05-19T10:07:32.909Z,3.35
2023-05-19T10:10:35.299Z,3.53
2023-05-19T10:13:39.323Z,3.65
2023-05-19T10:16:41.950Z,3.72
2023-05-19T10:19:45.435Z,3.23
2023-05-19T10:22:48.863Z,3.67
2023-05-19T10:25:54.920Z,3.63
2023-05-19T10:28:58.350Z,3.45
2023-05-19T10:32:06.926Z,3.58
2023-05-19T10:35:09.428Z,3.83
2023-05-19T10:38:14.755Z,3.80
2023-05-19T10:41:47.043Z,3.40
2023-05-19T10:45:34.790Z,3.50
2023-05-19T10:48:37.515Z,3.85
2023-05-19T10:51:39.922Z,3.97
2023-05-19T10:54:46.314Z,3.25
2023-05-19T10:57:56.847Z,4.15
2023-05-19T11:01:02.162Z,3.25
2023-05-19T11:04:13.966Z,4.28
2023-05-19T11:07:21.891Z,4.50
2023-05-19T11:10:24.941Z,3.70
2023-05-19T11:16:32.665Z,3.75
2023-05-19T11:19:35.747Z,3.38
2023-05-19T11:22:39.956Z,3.47
2023-05-19T11:25:50.968Z,3.60
2023-05-19T11:28:53.738Z,3.45
2023-05-19T11:31:56.400Z,3.70
2023-05-19T11:34:59.082Z,4.00
2023-05-19T11:38:02.048Z,3.83
2023-05-19T11:41:04.586Z,3.45
2023-05-19T11:44:11.459Z,3.60
2023-05-19T11:47:17.315Z,3.70
2023-05-19T11:50:20.682Z,3.97
2023-05-19T11:53:23.332Z,3.83
2023-05-19T11:56:25.734Z,3.42
2023-05-19T11:59:36.194Z,3.72
2023-05-19T12:02:38.786Z,3.38
2023-05-19T12:05:45.722Z,3.70
2023-05-19T12:08:51.529Z,3.43
2023-05-19T12:11:55.322Z,3.15
2023-05-19T12:14:57.737Z,4.53
2023-05-19T12:18:07.604Z,4.22
2023-05-19T12:21:10.225Z,3.25
2023-05-19T12:24:12.824Z,3.57
2023-05-19T12:27:24.187Z,4.15
2023-05-19T12:30:29.094Z,3.47
2023-05-19T12:33:33.667Z,3.90
2023-05-19T12:36:38.385Z,4.10
2023-05-19T12:39:42.969Z,4.07
2023-05-19T12:42:45.933Z,4.18
2023-05-19T12:45:48.869Z,3.58
2023-05-19T12:48:51.796Z,3.70
2023-05-19T12:51:54.389Z,3.53
2023-05-19T12:55:07.438Z,3.70
2023-05-19T12:58:13.569Z,3.30
2023-05-19T13:01:17.716Z,4.07
2023-05-19T13:04:20.245Z,3.80
2023-05-19T13:07:22.555Z,3.42
2023-05-19T13:10:27.778Z,3.90
2023-05-19T13:13:30.100Z,3.88
2023-05-19T13:16:32.467Z,4.53
2023-05-19T13:19:34.854Z,4.00
2023-05-19T13:22:37.158Z,3.97
2023-05-19T13:25:40.344Z,3.90
2023-05-19T13:28:42.689Z,4.82
2023-05-19T13:31:45.092Z,4.03
2023-05-19T13:34:47.462Z,4.32
2023-05-19T13:37:50.141Z,3.78
2023-05-19T13:40:52.494Z,3.80
2023-05-19T13:43:55.365Z,5.22
2023-05-19T13:46:57.826Z,3.80
2023-05-19T13:50:00.308Z,3.63
2023-05-19T13:53:03.678Z,3.53
2023-05-19T13:56:06.238Z,4.53
2023-05-19T13:59:08.767Z,4.00
2023-05-19T14:02:11.364Z,3.88
2023-05-19T14:05:14.803Z,3.70
2023-05-19T14:08:17.415Z,4.60
2023-05-19T14:11:20.229Z,4.73
2023-05-19T14:14:22.923Z,3.95
2023-05-19T14:17:28.064Z,4.18
2023-05-19T14:20:31.772Z,3.83
2023-05-19T14:23:34.389Z,3.60
2023-05-19T14:26:36.740Z,3.90
2023-05-19T14:29:39.542Z,3.85
2023-05-19T14:32:41.846Z,4.38
2023-05-19T14:35:44.122Z,3.88
2023-05-19T14:38:46.548Z,3.85
2023-05-19T14:41:51.131Z,4.60
2023-05-19T14:44:53.497Z,4.05
2023-05-19T14:47:56.029Z,3.83
2023-05-19T14:50:58.347Z,4.03
2023-05-19T14:54:02.168Z,4.50
2023-05-19T14:57:04.617Z,5.33
2023-05-19T15:00:09.364Z,3.80
2023-05-19T15:03:11.903Z,4.00
2023-05-19T15:06:14.338Z,4.88
2023-05-19T15:09:16.605Z,3.90
2023-05-19T15:12:19.151Z,5.03
2023-05-19T15:15:21.500Z,4.47
2023-05-19T15:18:23.834Z,4.82
2023-05-19T15:21:26.108Z,3.78
2023-05-19T15:24:28.443Z,3.67
2023-05-19T15:27:30.824Z,4.40
2023-05-19T15:30:33.371Z,3.60
2023-05-19T15:33:36.238Z,5.10
2023-05-19T15:36:38.615Z,4.03
2023-05-19T15:39:41.104Z,3.83
2023-05-19T15:42:43.431Z,4.87
2023-05-19T15:45:46.167Z,4.20
2023-05-19T15:48:48.481Z,4.00
2023-05-19T15:51:50.769Z,3.87
2023-05-19T15:54:55.285Z,3.80
2023-05-19T15:57:57.634Z,3.38
2023-05-19T16:01:00.127Z,3.50
2023-05-19T16:04:03.913Z,4.00
2023-05-19T16:07:06.449Z,4.03
2023-05-19T16:10:09.344Z,4.95
2023-05-19T16:13:11.640Z,3.80
2023-05-19T16:16:13.904Z,4.10
2023-05-19T16:19:16.211Z,4.95
2023-05-19T16:22:18.501Z,4.73
2023-05-19T16:25:20.883Z,4.18
2023-05-19T16:28:24.864Z,3.55
2023-05-19T16:31:27.527Z,4.40
2023-05-19T16:34:30.638Z,4.50
2023-05-19T16:37:33.076Z,3.73
2023-05-19T16:40:35.645Z,3.88
2023-05-19T16:43:38.230Z,3.70
2023-05-19T16:46:40.955Z,4.30
2023-05-19T16:49:44.140Z,3.90
2023-05-19T16:52:46.547Z,3.67
2023-05-19T16:55:48.810Z,3.60
2023-05-19T16:58:51.104Z,3.25
2023-05-19T17:01:53.722Z,4.18
2023-05-19T17:04:56.040Z,4.32
2023-05-19T17:07:58.378Z,3.70
2023-05-19T17:11:00.692Z,5.13
2023-05-19T17:14:07.643Z,3.60
2023-05-19T17:17:10.142Z,4.07
2023-05-19T17:20:13.461Z,4.40
2023-05-19T17:23:16.068Z,3.97
2023-05-19T17:26:18.818Z,4.80
2023-05-19T17:29:21.219Z,6.25
2023-05-19T17:32:28.320Z,4.25
2023-05-19T17:35:30.735Z,3.78
2023-05-19T17:38:33.303Z,4.80
2023-05-19T17:41:35.798Z,3.40
2023-05-19T17:44:38.293Z,4.30
2023-05-19T17:47:40.630Z,5.22
2023-05-19T17:50:42.981Z,4.40
2023-05-19T17:53:45.574Z,6.53
2023-05-19T17:56:49.792Z,6.35
2023-05-19T17:59:52.466Z,5.07
2023-05-19T18:02:57.064Z,6.22
2023-05-19T18:05:59.508Z,8.18
2023-05-19T18:09:06.092Z,4.97
2023-05-19T18:12:08.374Z,4.25
2023-05-19T18:15:11.533Z,3.92
2023-05-19T18:18:13.972Z,4.18
2023-05-19T18:21:18.100Z,5.68
2023-05-19T18:24:20.580Z,4.53
2023-05-19T18:27:22.868Z,6.32
2023-05-19T18:30:25.227Z,4.63
2023-05-19T18:33:28.704Z,4.80
2023-05-19T18:36:33.056Z,4.63
2023-05-19T18:39:35.524Z,7.17
2023-05-19T18:42:37.883Z,21.17
2023-05-19T18:45:40.229Z,15.85
2023-05-19T18:48:42.579Z,15.60
2023-05-19T18:51:44.916Z,14.30
2023-05-19T18:54:47.692Z,11.83
2023-05-19T18:57:49.948Z,4.55
2023-05-19T19:00:55.673Z,11.32
2023-05-19T19:03:57.992Z,13.13
2023-05-19T19:07:00.281Z,6.80
2023-05-19T19:10:02.568Z,6.70
2023-05-19T19:13:07.695Z,12.90
2023-05-19T19:16:10.033Z,18.27
2023-05-19T19:19:12.487Z,11.70
2023-05-19T19:22:14.851Z,9.50
2023-05-19T19:25:17.216Z,13.80
2023-05-19T19:28:19.599Z,9.63
2023-05-19T19:31:22.634Z,7.57
2023-05-19T19:34:25.118Z,10.30
2023-05-19T19:37:27.435Z,8.35
2023-05-19T19:40:29.887Z,7.17
2023-05-19T19:43:32.212Z,6.68
2023-05-19T19:46:34.635Z,8.10
2023-05-19T19:49:36.942Z,6.03
2023-05-19T19:52:39.929Z,6.07
2023-05-19T19:55:43.111Z,5.03
2023-05-19T19:58:45.435Z,5.00
2023-05-19T20:01:47.719Z,3.97
2023-05-19T20:04:49.999Z,9.57
2023-05-19T20:07:52.281Z,6.45
2023-05-19T20:10:55.240Z,4.63
2023-05-19T20:13:57.546Z,5.95
2023-05-19T20:16:59.870Z,7.05
2023-05-19T20:20:08.066Z,4.82
2023-05-19T20:23:10.500Z,4.75
2023-05-19T20:26:13.637Z,4.87
2023-05-19T20:29:16.916Z,4.95
2023-05-19T20:32:19.327Z,5.60
2023-05-19T20:35:22.492Z,5.72
2023-05-19T20:38:24.769Z,4.85
2023-05-19T20:41:27.513Z,5.30
2023-05-19T20:44:29.802Z,4.82
2023-05-19T20:47:32.099Z,5.13
2023-05-19T20:50:34.623Z,7.05
2023-05-19T20:53:37.184Z,6.63
2023-05-19T20:56:39.483Z,12.13
2023-05-19T20:59:41.911Z,38.85
2023-05-19T21:02:44.442Z,21.60
2023-05-19T21:05:46.760Z,11.65
2023-05-19T21:08:49.002Z,8.07
2023-05-19T21:11:53.703Z,7.17
2023-05-19T21:14:55.951Z,5.22
2023-05-19T21:17:58.393Z,8.20
2023-05-19T21:21:04.223Z,5.38
2023-05-19T21:24:06.624Z,5.20
2023-05-19T21:27:08.936Z,4.73
2023-05-19T21:30:12.039Z,5.10
2023-05-19T21:33:14.396Z,5.30
2023-05-19T21:36:16.955Z,6.25
2023-05-19T21:39:19.247Z,5.00
2023-05-19T21:42:21.571Z,6.10
2023-05-19T21:45:23.839Z,7.65
2023-05-19T21:48:26.227Z,8.02
2023-05-19T21:51:29.229Z,6.40
2023-05-19T21:54:31.525Z,6.10
2023-05-19T21:57:33.788Z,6.10
2023-05-19T22:00:36.877Z,6.25
2023-05-19T22:03:39.462Z,5.68
2023-05-19T22:06:41.867Z,6.07
2023-05-19T22:09:44.160Z,4.70
2023-05-19T22:12:46.510Z,5.30
2023-05-19T22:15:48.853Z,5.55
2023-05-19T22:18:51.210Z,5.00
2023-05-19T22:22:01.883Z,4.60
2023-05-19T22:25:08.557Z,5.97
2023-05-19T22:28:10.817Z,5.77
2023-05-19T22:31:13.136Z,5.32
2023-05-19T22:34:15.669Z,4.85
2023-05-19T22:37:18.015Z,4.50
2023-05-19T22:40:20.478Z,4.63
2023-05-19T22:43:22.776Z,6.43
2023-05-19T22:46:25.101Z,4.55
2023-05-19T22:49:29.497Z,5.13
2023-05-19T22:52:31.804Z,5.70
2023-05-19T22:55:34.334Z,5.97
2023-05-19T22:58:42.982Z,5.60
2023-05-19T23:01:46.822Z,5.43
2023-05-19T23:04:49.296Z,4.75
2023-05-19T23:07:51.624Z,4.88
2023-05-19T23:10:53.979Z,5.35
2023-05-19T23:13:56.822Z,5.13
2023-05-19T23:16:59.376Z,5.03
2023-05-19T23:20:01.995Z,4.95
2023-05-19T23:23:07.337Z,4.93
2023-05-19T23:26:09.866Z,4.97
2023-05-19T23:29:13.219Z,6.17
2023-05-19T23:32:15.883Z,4.20
2023-05-19T23:35:18.584Z,4.65
2023-05-19T23:38:21.075Z,4.70
2023-05-19T23:41:23.377Z,4.93
2023-05-19T23:44:27.121Z,5.23
2023-05-19T23:47:29.402Z,4.32
2023-05-19T23:50:31.841Z,5.00
2023-05-19T23:53:34.162Z,5.40
2023-05-19T23:56:36.481Z,4.60
2023-05-19T23:59:38.788Z,4.50
